createdAt,value
2024-01-06T00:00:04.039Z,50.99
2024-01-06T00:00:33.605Z,50.71
2024-01-06T00:00:55.443Z,50.69
2024-01-06T00:01:17.747Z,50.74
2024-01-06T00:01:40.454Z,50.75
2024-01-06T00:02:02.880Z,50.83
2024-01-06T00:02:24.583Z,50.74
2024-01-06T00:02:46.339Z,50.86
2024-01-06T00:03:09.477Z,50.93
2024-01-06T00:03:32.256Z,50.81
2024-01-06T00:03:54.119Z,50.85
2024-01-06T00:04:15.891Z,50.77
2024-01-06T00:04:37.620Z,50.77
2024-01-06T00:04:59.459Z,50.67
2024-01-06T00:05:22.114Z,50.63
2024-01-06T00:05:43.805Z,50.76
2024-01-06T00:06:06.431Z,51.04
2024-01-06T00:06:28.122Z,51.33
2024-01-06T00:06:49.798Z,51.15
2024-01-06T00:07:11.677Z,51.22
2024-01-06T00:07:34.316Z,51.18
2024-01-06T00:07:55.961Z,51.34
2024-01-06T00:08:17.584Z,51.37
2024-01-06T00:08:39.209Z,51.25
2024-01-06T00:09:00.803Z,51.31
2024-01-06T00:09:23.483Z,51.31
2024-01-06T00:09:45.210Z,51.09
2024-01-06T00:10:07.805Z,51.29
2024-01-06T00:10:29.606Z,51.38
2024-01-06T00:10:51.228Z,51.29
2024-01-06T00:11:12.961Z,51.55
2024-01-06T00:11:35.555Z,52.29
2024-01-06T00:11:57.266Z,52.61
2024-01-06T00:12:19.635Z,52.87
2024-01-06T00:12:41.296Z,52.84
2024-01-06T00:13:03.066Z,52.77
2024-01-06T00:13:24.835Z,52.73
2024-01-06T00:13:47.424Z,52.88
2024-01-06T00:14:09.132Z,52.63
2024-01-06T00:14:30.743Z,52.54
2024-01-06T00:14:52.356Z,52.36
2024-01-06T00:15:14.161Z,52.52
2024-01-06T00:15:35.861Z,53.13
2024-01-06T00:15:58.866Z,53.05
2024-01-06T00:16:21.407Z,53.06
2024-01-06T00:16:43.069Z,53.24
2024-01-06T00:17:04.903Z,53.24
2024-01-06T00:17:26.523Z,53.25
2024-01-06T00:17:48.276Z,53.34
2024-01-06T00:18:12.336Z,53.10
2024-01-06T00:18:34.193Z,53.12
2024-01-06T00:18:56.001Z,52.95
2024-01-06T00:19:18.703Z,52.80
2024-01-06T00:19:40.477Z,52.68
2024-01-06T00:20:03.634Z,52.88
2024-01-06T00:20:25.544Z,52.73
2024-01-06T00:20:47.165Z,52.75
2024-01-06T00:21:09.408Z,53.11
2024-01-06T00:21:31.056Z,53.31
2024-01-06T00:21:53.069Z,53.44
2024-01-06T00:22:15.693Z,53.32
2024-01-06T00:22:37.663Z,53.29
2024-01-06T00:22:59.996Z,53.23
2024-01-06T00:23:21.671Z,53.06
2024-01-06T00:23:43.394Z,52.92
2024-01-06T00:24:06.669Z,53.32
2024-01-06T00:24:28.658Z,53.48
2024-01-06T00:24:50.432Z,53.67
2024-01-06T00:25:12.161Z,54.63
2024-01-06T00:25:33.761Z,55.38
2024-01-06T00:25:56.384Z,55.29
2024-01-06T00:26:18.005Z,55.00
2024-01-06T00:26:39.675Z,55.08
2024-01-06T00:27:01.340Z,55.05
2024-01-06T00:27:23.053Z,54.78
2024-01-06T00:27:45.789Z,54.59
2024-01-06T00:28:07.515Z,54.31
2024-01-06T00:28:29.328Z,54.18
2024-01-06T00:28:51.095Z,54.18
2024-01-06T00:29:12.690Z,54.19
2024-01-06T00:29:34.320Z,53.92
2024-01-06T00:29:57.065Z,54.02
2024-01-06T00:30:18.818Z,54.06
2024-01-06T00:30:40.555Z,53.88
2024-01-06T00:31:02.393Z,53.78
2024-01-06T00:31:24.236Z,53.69
2024-01-06T00:31:46.990Z,53.69
2024-01-06T00:32:09.017Z,53.70
2024-01-06T00:32:31.038Z,53.55
2024-01-06T00:32:52.708Z,53.47
2024-01-06T00:33:15.745Z,53.73
2024-01-06T00:33:38.559Z,53.60
2024-01-06T00:34:00.412Z,53.55
2024-01-06T00:34:22.349Z,53.59
2024-01-06T00:34:44.118Z,53.47
2024-01-06T00:35:06.473Z,53.57
2024-01-06T00:35:28.107Z,53.69
2024-01-06T00:35:50.685Z,54.07
2024-01-06T00:36:12.455Z,54.26
2024-01-06T00:36:34.212Z,54.14
2024-01-06T00:36:55.953Z,54.17
2024-01-06T00:37:17.628Z,54.11
2024-01-06T00:37:39.329Z,54.39
2024-01-06T00:38:02.383Z,54.63
2024-01-06T00:38:24.020Z,54.67
2024-01-06T00:38:45.773Z,54.52
2024-01-06T00:39:07.438Z,54.43
2024-01-06T00:39:29.147Z,54.38
2024-01-06T00:39:51.642Z,54.91
2024-01-06T00:40:15.072Z,54.94
2024-01-06T00:40:36.751Z,54.86
2024-01-06T00:40:58.362Z,55.05
2024-01-06T00:41:19.980Z,54.89
2024-01-06T00:41:41.613Z,54.84
2024-01-06T00:42:03.475Z,55.15
2024-01-06T00:42:26.140Z,55.32
2024-01-06T00:42:47.890Z,55.27
2024-01-06T00:43:09.635Z,55.35
2024-01-06T00:43:31.267Z,55.35
2024-01-06T00:43:52.941Z,55.04
2024-01-06T00:44:14.580Z,55.05
2024-01-06T00:44:38.525Z,55.19
2024-01-06T00:45:00.140Z,55.20
2024-01-06T00:45:22.078Z,55.37
2024-01-06T00:45:43.788Z,55.38
2024-01-06T00:46:05.473Z,55.60
2024-01-06T00:46:28.103Z,55.48
2024-01-06T00:46:49.745Z,55.50
2024-01-06T00:47:11.342Z,55.34
2024-01-06T00:47:33.019Z,55.28
2024-01-06T00:47:54.848Z,55.23
2024-01-06T00:48:19.020Z,55.30
2024-01-06T00:48:40.885Z,55.34
2024-01-06T00:49:02.909Z,55.41
2024-01-06T00:49:24.681Z,55.40
2024-01-06T00:49:46.556Z,55.54
2024-01-06T00:50:10.127Z,55.45
2024-01-06T00:50:31.838Z,55.59
2024-01-06T00:50:53.511Z,55.66
2024-01-06T00:51:19.004Z,55.56
2024-01-06T00:51:42.657Z,55.44
2024-01-06T00:52:10.263Z,55.31
2024-01-06T00:52:39.861Z,55.42
2024-01-06T00:53:05.190Z,55.78
2024-01-06T00:53:31.272Z,56.78
2024-01-06T00:53:55.075Z,56.80
2024-01-06T00:56:22.794Z,56.60
2024-01-06T00:56:46.086Z,56.70
2024-01-06T00:57:09.595Z,56.64
2024-01-06T00:57:34.267Z,56.61
2024-01-06T00:57:59.703Z,56.76
2024-01-06T00:58:22.012Z,56.89
2024-01-06T00:58:45.159Z,56.82
2024-01-06T00:59:09.271Z,56.61
2024-01-06T00:59:37.216Z,56.76
2024-01-06T01:00:04.391Z,56.68
2024-01-06T01:01:21.743Z,56.45
2024-01-06T01:01:44.457Z,56.38
2024-01-06T01:02:06.107Z,56.35
2024-01-06T01:02:27.721Z,56.14
2024-01-06T01:02:49.409Z,56.33
2024-01-06T01:03:11.090Z,56.46
2024-01-06T01:03:35.149Z,56.41
2024-01-06T01:03:56.926Z,56.50
2024-01-06T01:04:18.742Z,56.50
2024-01-06T01:04:40.545Z,56.58
2024-01-06T01:05:03.080Z,56.49
2024-01-06T01:05:25.841Z,56.37
2024-01-06T01:05:47.552Z,56.43
2024-01-06T01:06:09.536Z,56.15
2024-01-06T01:06:31.235Z,56.27
2024-01-06T01:06:53.003Z,56.31
2024-01-06T01:07:14.668Z,56.17
2024-01-06T01:07:37.663Z,56.57
2024-01-06T01:07:59.306Z,56.57
2024-01-06T01:08:20.942Z,56.41
2024-01-06T01:08:42.568Z,56.55
2024-01-06T01:09:05.297Z,56.48
2024-01-06T01:09:27.109Z,56.56
2024-01-06T01:09:49.849Z,56.75
2024-01-06T01:10:11.732Z,56.93
2024-01-06T01:10:33.389Z,56.59
2024-01-06T01:10:55.004Z,56.89
2024-01-06T01:11:16.905Z,57.02
2024-01-06T01:11:38.618Z,56.96
2024-01-06T01:12:01.253Z,56.80
2024-01-06T01:12:22.936Z,56.62
2024-01-06T01:12:44.614Z,56.74
2024-01-06T01:13:06.329Z,56.91
2024-01-06T01:13:27.998Z,57.01
2024-01-06T01:13:50.668Z,56.94
2024-01-06T01:14:12.344Z,57.15
2024-01-06T01:14:33.980Z,57.31
2024-01-06T01:14:55.727Z,57.12
2024-01-06T01:15:17.496Z,57.08
2024-01-06T01:15:40.288Z,57.08
2024-01-06T01:16:02.011Z,56.99
2024-01-06T01:16:23.650Z,56.80
2024-01-06T01:16:45.291Z,56.87
2024-01-06T01:17:07.280Z,56.68
2024-01-06T01:17:29.954Z,56.59
2024-01-06T01:17:51.710Z,56.67
2024-01-06T01:18:14.026Z,57.00
2024-01-06T01:18:37.292Z,56.57
2024-01-06T01:19:00.139Z,56.81
2024-01-06T01:19:21.955Z,56.79
2024-01-06T01:19:43.754Z,56.86
2024-01-06T01:20:42.838Z,56.89
2024-01-06T01:21:04.581Z,57.01
2024-01-06T01:21:26.309Z,57.07
2024-01-06T01:21:47.970Z,57.02
2024-01-06T01:22:09.711Z,56.83
2024-01-06T01:22:32.292Z,57.01
2024-01-06T01:22:53.962Z,57.03
2024-01-06T01:23:15.589Z,56.86
2024-01-06T01:23:37.514Z,56.88
2024-01-06T01:23:59.117Z,56.93
2024-01-06T01:24:21.762Z,57.03
2024-01-06T01:24:43.494Z,57.01
2024-01-06T01:25:08.575Z,56.89
2024-01-06T01:25:30.190Z,56.87
2024-01-06T01:25:52.894Z,56.90
2024-01-06T01:26:14.643Z,56.92
2024-01-06T01:26:36.269Z,56.87
2024-01-06T01:26:57.913Z,56.75
2024-01-06T01:27:19.595Z,56.74
2024-01-06T01:27:42.301Z,56.80
2024-01-06T01:28:04.569Z,56.74
2024-01-06T01:28:26.288Z,56.79
2024-01-06T01:28:47.949Z,57.27
2024-01-06T01:29:09.596Z,57.07
2024-01-06T01:29:32.240Z,57.22
2024-01-06T01:29:55.892Z,57.04
2024-01-06T01:30:17.780Z,57.20
2024-01-06T01:30:39.585Z,57.33
2024-01-06T01:31:01.377Z,57.20
2024-01-06T01:31:23.221Z,57.17
2024-01-06T01:31:46.096Z,57.39
2024-01-06T01:32:07.920Z,57.49
2024-01-06T01:32:29.726Z,57.30
2024-01-06T01:32:51.606Z,57.31
2024-01-06T01:33:13.638Z,57.45
2024-01-06T01:33:37.760Z,57.15
2024-01-06T01:33:59.673Z,57.26
2024-01-06T01:34:21.552Z,57.26
2024-01-06T01:34:43.431Z,57.31
2024-01-06T01:35:06.156Z,57.20
2024-01-06T01:35:28.782Z,57.31
2024-01-06T01:35:50.429Z,57.26
2024-01-06T01:36:12.062Z,57.15
2024-01-06T01:36:33.756Z,57.16
2024-01-06T01:36:55.400Z,57.38
2024-01-06T01:37:17.092Z,57.22
2024-01-06T01:37:39.733Z,57.08
2024-01-06T01:38:01.391Z,57.19
2024-01-06T01:38:23.030Z,57.23
2024-01-06T01:38:44.636Z,57.17
2024-01-06T01:39:06.285Z,57.24
2024-01-06T01:39:29.013Z,57.41
2024-01-06T01:39:50.666Z,56.98
2024-01-06T01:40:12.556Z,56.95
2024-01-06T01:40:34.676Z,56.94
2024-01-06T01:40:56.316Z,57.03
2024-01-06T01:41:17.956Z,56.95
2024-01-06T01:41:42.441Z,57.06
2024-01-06T01:42:04.472Z,57.09
2024-01-06T01:42:26.138Z,56.96
2024-01-06T01:42:47.817Z,56.99
2024-01-06T01:43:17.222Z,57.09
2024-01-06T01:43:41.296Z,56.63
2024-01-06T01:44:03.031Z,56.70
2024-01-06T01:44:24.675Z,56.79
2024-01-06T01:44:46.301Z,56.93
2024-01-06T01:45:10.522Z,57.14
2024-01-06T01:45:33.389Z,57.56
2024-01-06T01:45:56.670Z,57.52
2024-01-06T01:46:18.386Z,57.48
2024-01-06T01:46:41.163Z,57.43
2024-01-06T01:47:05.655Z,57.34
2024-01-06T01:47:27.861Z,57.47
2024-01-06T01:47:49.758Z,57.39
2024-01-06T01:48:12.623Z,57.34
2024-01-06T01:48:35.717Z,57.18
2024-01-06T01:49:01.122Z,57.09
2024-01-06T01:49:23.535Z,57.24
2024-01-06T01:49:46.714Z,57.20
2024-01-06T01:50:10.686Z,57.02
2024-01-06T01:50:32.440Z,56.93
2024-01-06T01:50:55.168Z,56.88
2024-01-06T01:51:17.017Z,56.55
2024-01-06T01:51:39.543Z,56.58
2024-01-06T01:52:01.538Z,56.65
2024-01-06T01:52:24.522Z,56.39
2024-01-06T01:52:46.157Z,56.81
2024-01-06T01:53:07.934Z,56.60
2024-01-06T01:53:30.705Z,56.57
2024-01-06T01:53:52.391Z,56.68
2024-01-06T01:54:15.504Z,56.91
2024-01-06T01:54:37.271Z,56.77
2024-01-06T01:54:58.950Z,56.75
2024-01-06T01:55:20.744Z,56.66
2024-01-06T01:55:44.804Z,56.88
2024-01-06T01:56:06.990Z,56.87
2024-01-06T01:56:34.903Z,57.10
2024-01-06T01:56:56.809Z,57.01
2024-01-06T01:57:18.842Z,56.97
2024-01-06T01:57:40.799Z,57.04
2024-01-06T01:58:02.525Z,56.96
2024-01-06T01:58:25.699Z,56.85
2024-01-06T01:58:47.865Z,56.71
2024-01-06T01:59:12.288Z,56.67
2024-01-06T01:59:34.878Z,56.57
2024-01-06T01:59:56.617Z,56.60
2024-01-06T02:00:19.712Z,56.26
2024-01-06T02:00:41.506Z,56.38
2024-01-06T02:01:03.346Z,56.55
2024-01-06T02:01:25.261Z,56.47
2024-01-06T02:01:47.361Z,56.42
2024-01-06T02:12:28.506Z,56.78
2024-01-06T02:12:52.984Z,56.54
2024-01-06T02:13:14.891Z,56.89
2024-01-06T02:13:37.776Z,57.31
2024-01-06T02:14:00.388Z,57.30
2024-01-06T02:14:22.036Z,57.20
2024-01-06T02:14:44.248Z,57.36
2024-01-06T02:15:06.834Z,57.32
2024-01-06T02:15:28.501Z,57.19
2024-01-06T02:15:50.214Z,57.13
2024-01-06T02:16:12.885Z,57.07
2024-01-06T02:16:34.541Z,57.37
2024-01-06T02:16:56.157Z,57.38
2024-01-06T02:17:17.849Z,57.37
2024-01-06T02:17:40.993Z,57.41
2024-01-06T02:18:02.870Z,57.50
2024-01-06T02:18:25.597Z,57.51
2024-01-06T02:18:47.793Z,57.37
2024-01-06T02:19:12.337Z,57.42
2024-01-06T02:19:34.257Z,57.42
2024-01-06T02:19:57.585Z,57.57
2024-01-06T02:20:20.939Z,57.70
2024-01-06T02:20:45.562Z,57.67
2024-01-06T02:21:07.818Z,57.58
2024-01-06T02:21:32.568Z,57.71
2024-01-06T02:21:55.783Z,57.43
2024-01-06T02:22:17.472Z,57.83
2024-01-06T02:22:40.203Z,58.50
2024-01-06T02:23:02.153Z,58.38
2024-01-06T02:23:23.819Z,58.30
2024-01-06T02:23:45.455Z,58.37
2024-01-06T02:24:07.273Z,58.42
2024-01-06T02:24:28.931Z,58.40
2024-01-06T02:24:51.599Z,58.36
2024-01-06T02:25:13.595Z,58.42
2024-01-06T02:25:36.251Z,58.38
2024-01-06T02:25:58.010Z,58.37
2024-01-06T02:26:20.978Z,58.29
2024-01-06T02:26:42.701Z,58.20
2024-01-06T02:27:05.115Z,57.87
2024-01-06T02:27:27.162Z,57.78
2024-01-06T02:27:48.919Z,57.92
2024-01-06T02:28:10.569Z,57.94
2024-01-06T02:28:33.178Z,57.95
2024-01-06T02:28:54.758Z,57.90
2024-01-06T02:29:16.393Z,57.94
2024-01-06T02:29:38.016Z,57.63
2024-01-06T02:29:59.669Z,57.77
2024-01-06T02:30:21.490Z,57.75
2024-01-06T02:30:44.209Z,57.80
2024-01-06T02:31:05.984Z,57.83
2024-01-06T02:31:27.777Z,57.77
2024-01-06T02:31:49.636Z,57.70
2024-01-06T02:32:11.298Z,57.97
2024-01-06T02:32:33.935Z,57.83
2024-01-06T02:32:55.763Z,57.80
2024-01-06T02:33:18.146Z,58.08
2024-01-06T02:33:40.104Z,58.39
2024-01-06T02:34:01.919Z,58.64
2024-01-06T02:34:24.680Z,58.53
2024-01-06T02:34:46.436Z,58.41
2024-01-06T02:35:09.022Z,58.45
2024-01-06T02:35:30.646Z,58.41
2024-01-06T02:35:52.304Z,58.25
2024-01-06T02:36:13.918Z,58.33
2024-01-06T02:36:36.549Z,58.36
2024-01-06T02:36:59.519Z,58.45
2024-01-06T02:37:21.170Z,58.35
2024-01-06T02:37:42.834Z,58.35
2024-01-06T02:38:04.789Z,58.44
2024-01-06T02:38:26.409Z,58.50
2024-01-06T02:38:49.089Z,58.28
2024-01-06T02:39:10.935Z,58.24
2024-01-06T02:39:32.658Z,58.28
2024-01-06T02:39:54.396Z,58.29
2024-01-06T02:40:16.019Z,58.16
2024-01-06T02:40:38.662Z,58.04
2024-01-06T02:41:00.276Z,57.93
2024-01-06T02:41:21.952Z,57.64
2024-01-06T02:41:43.599Z,57.86
2024-01-06T02:42:06.125Z,57.90
2024-01-06T02:42:27.881Z,57.98
2024-01-06T02:42:50.728Z,57.92
2024-01-06T02:43:12.605Z,57.85
2024-01-06T02:43:34.217Z,57.77
2024-01-06T02:43:56.558Z,57.63
2024-01-06T02:44:18.191Z,57.97
2024-01-06T02:44:39.789Z,57.92
2024-01-06T02:45:02.362Z,57.82
2024-01-06T02:45:24.028Z,58.00
2024-01-06T02:45:47.730Z,57.83
2024-01-06T02:46:09.371Z,57.74
2024-01-06T02:46:31.985Z,57.84
2024-01-06T02:46:55.302Z,57.76
2024-01-06T02:47:16.910Z,57.81
2024-01-06T02:47:38.700Z,57.71
2024-01-06T02:48:00.566Z,57.65
2024-01-06T02:48:23.393Z,57.66
2024-01-06T02:48:45.182Z,57.36
2024-01-06T02:49:07.159Z,57.54
2024-01-06T02:49:28.981Z,57.92
2024-01-06T02:49:50.683Z,57.85
2024-01-06T02:50:13.663Z,57.87
2024-01-06T02:50:35.286Z,57.94
2024-01-06T02:50:56.901Z,57.75
2024-01-06T02:51:18.581Z,58.02
2024-01-06T02:51:40.298Z,57.87
2024-01-06T02:52:03.441Z,57.77
2024-01-06T02:52:26.046Z,57.69
2024-01-06T02:52:48.143Z,57.68
2024-01-06T02:53:10.799Z,57.61
2024-01-06T02:53:32.480Z,57.53
2024-01-06T03:04:17.486Z,57.58
2024-01-06T03:04:40.188Z,58.03
2024-01-06T03:05:01.940Z,58.05
2024-01-06T03:05:23.686Z,58.19
2024-01-06T03:05:45.488Z,58.25
2024-01-06T03:06:30.772Z,58.16
2024-01-06T03:06:54.596Z,58.24
2024-01-06T03:07:17.771Z,58.10
2024-01-06T03:07:39.367Z,57.96
2024-01-06T03:08:00.990Z,57.94
2024-01-06T03:08:23.768Z,57.98
2024-01-06T03:08:46.351Z,57.90
2024-01-06T03:09:08.602Z,57.76
2024-01-06T03:09:30.352Z,57.86
2024-01-06T03:09:51.960Z,57.76
2024-01-06T03:10:13.675Z,57.91
2024-01-06T03:10:35.356Z,57.83
2024-01-06T03:10:58.011Z,57.96
2024-01-06T03:11:19.704Z,58.15
2024-01-06T03:11:41.419Z,58.23
2024-01-06T03:12:03.325Z,58.16
2024-01-06T03:12:25.155Z,57.87
2024-01-06T03:12:47.022Z,57.96
2024-01-06T03:13:09.743Z,57.94
2024-01-06T03:13:31.461Z,57.87
2024-01-06T03:13:53.090Z,57.92
2024-01-06T03:14:14.811Z,57.74
2024-01-06T03:14:36.618Z,57.89
2024-01-06T03:14:58.365Z,58.17
2024-01-06T03:15:21.017Z,58.33
2024-01-06T03:15:42.808Z,58.25
2024-01-06T03:16:05.863Z,58.02
2024-01-06T03:16:27.504Z,58.05
2024-01-06T03:16:49.110Z,57.80
2024-01-06T03:17:11.667Z,57.59
2024-01-06T03:17:34.526Z,57.73
2024-01-06T03:17:56.264Z,57.80
2024-01-06T03:18:18.062Z,57.72
2024-01-06T03:18:39.983Z,57.68
2024-01-06T03:19:01.900Z,57.64
2024-01-06T03:19:27.139Z,57.68
2024-01-06T03:19:49.041Z,58.01
2024-01-06T03:20:12.264Z,57.88
2024-01-06T03:20:33.891Z,57.78
2024-01-06T03:20:55.501Z,57.81
2024-01-06T03:21:20.702Z,57.72
2024-01-06T03:21:42.336Z,57.65
2024-01-06T03:22:04.302Z,57.73
2024-01-06T03:22:28.278Z,57.59
2024-01-06T03:22:50.500Z,57.63
2024-01-06T03:23:12.107Z,57.60
2024-01-06T03:23:34.673Z,57.79
2024-01-06T03:23:56.459Z,57.83
2024-01-06T03:24:19.078Z,57.76
2024-01-06T03:24:41.356Z,57.73
2024-01-06T03:25:03.756Z,57.58
2024-01-06T03:25:25.333Z,57.58
2024-01-06T03:25:46.983Z,57.50
2024-01-06T03:26:08.728Z,57.48
2024-01-06T03:26:31.373Z,57.39
2024-01-06T03:26:53.095Z,57.36
2024-01-06T03:27:15.152Z,57.62
2024-01-06T03:27:36.853Z,57.67
2024-01-06T03:27:59.515Z,57.77
2024-01-06T03:28:21.131Z,57.55
2024-01-06T03:28:42.766Z,57.60
2024-01-06T03:29:04.730Z,57.57
2024-01-06T03:29:26.421Z,57.41
2024-01-06T03:29:48.081Z,57.45
2024-01-06T03:30:11.875Z,57.72
2024-01-06T03:30:33.779Z,57.84
2024-01-06T03:30:55.607Z,57.92
2024-01-06T03:31:17.510Z,57.78
2024-01-06T03:31:42.687Z,57.81
2024-01-06T03:32:07.653Z,57.62
2024-01-06T03:32:29.643Z,57.58
2024-01-06T03:32:51.437Z,57.70
2024-01-06T03:33:13.638Z,57.84
2024-01-06T03:33:35.460Z,57.75
2024-01-06T03:33:58.258Z,57.60
2024-01-06T03:34:20.035Z,57.61
2024-01-06T03:34:42.347Z,57.53
2024-01-06T03:35:04.648Z,57.66
2024-01-06T03:35:27.308Z,57.37
2024-01-06T03:35:48.934Z,57.19
2024-01-06T03:36:10.933Z,57.20
2024-01-06T03:36:32.588Z,57.10
2024-01-06T03:36:54.362Z,57.29
2024-01-06T03:37:16.297Z,57.07
2024-01-06T03:37:40.267Z,56.96
2024-01-06T03:38:01.916Z,57.22
2024-01-06T03:38:23.599Z,57.38
2024-01-06T03:38:45.262Z,57.31
2024-01-06T03:39:07.018Z,57.31
2024-01-06T03:39:28.739Z,57.25
2024-01-06T03:39:51.407Z,57.13
2024-01-06T03:40:13.719Z,57.04
2024-01-06T03:40:35.332Z,57.14
2024-01-06T03:40:57.034Z,57.21
2024-01-06T03:41:18.665Z,57.21
2024-01-06T03:41:40.356Z,57.54
2024-01-06T03:42:02.040Z,57.33
2024-01-06T03:42:24.663Z,57.42
2024-01-06T03:42:46.352Z,57.27
2024-01-06T03:43:07.948Z,57.21
2024-01-06T03:43:29.574Z,57.12
2024-01-06T03:43:51.205Z,56.96
2024-01-06T03:44:12.814Z,56.85
2024-01-06T03:44:36.013Z,56.82
2024-01-06T03:44:57.777Z,56.56
2024-01-06T03:45:19.483Z,56.64
2024-01-06T03:45:41.356Z,56.76
2024-01-06T03:46:03.173Z,56.90
2024-01-06T03:46:25.848Z,56.99
2024-01-06T03:46:47.518Z,57.00
2024-01-06T03:47:09.202Z,56.95
2024-01-06T03:47:30.879Z,57.14
2024-01-06T03:47:52.587Z,56.74
2024-01-06T03:48:15.487Z,56.82
2024-01-06T03:48:37.445Z,56.89
2024-01-06T03:48:59.328Z,57.23
2024-01-06T03:49:21.853Z,56.79
2024-01-06T03:49:43.675Z,56.98
2024-01-06T03:50:06.891Z,56.97
2024-01-06T03:50:28.495Z,57.08
2024-01-06T03:50:50.143Z,56.86
2024-01-06T03:51:13.886Z,56.64
2024-01-06T03:51:35.634Z,56.65
2024-01-06T03:51:57.450Z,56.60
2024-01-06T03:52:20.838Z,56.38
2024-01-06T03:52:43.834Z,56.45
2024-01-06T03:53:06.160Z,56.30
2024-01-06T03:53:27.765Z,56.49
2024-01-06T03:53:49.472Z,56.51
2024-01-06T03:54:12.062Z,56.67
2024-01-06T03:54:33.714Z,56.47
2024-01-06T03:54:55.509Z,56.66
2024-01-06T03:55:17.545Z,56.47
2024-01-06T03:55:39.173Z,56.60
2024-01-06T03:56:01.937Z,56.36
2024-01-06T03:56:23.740Z,56.33
2024-01-06T03:56:45.388Z,56.25
2024-01-06T03:57:07.025Z,56.39
2024-01-06T03:57:28.816Z,56.56
2024-01-06T03:57:51.484Z,56.40
2024-01-06T03:58:13.468Z,56.35
2024-01-06T03:58:35.461Z,56.36
2024-01-06T03:58:57.128Z,56.43
2024-01-06T03:59:18.760Z,56.54
2024-01-06T03:59:40.352Z,56.70
2024-01-06T04:00:03.187Z,57.07
2024-01-06T04:00:26.861Z,56.93
2024-01-06T04:00:48.826Z,57.00
2024-01-06T04:01:43.276Z,56.85
2024-01-06T04:02:06.801Z,56.98
2024-01-06T04:02:28.427Z,56.99
2024-01-06T04:02:50.174Z,56.77
2024-01-06T04:03:11.792Z,56.90
2024-01-06T04:03:33.518Z,56.65
2024-01-06T04:03:55.215Z,56.60
2024-01-06T04:04:17.979Z,56.85
2024-01-06T04:04:39.604Z,56.87
2024-01-06T04:05:01.276Z,56.82
2024-01-06T04:05:23.058Z,56.72
2024-01-06T04:05:45.016Z,56.84
2024-01-06T04:06:06.947Z,56.88
2024-01-06T04:06:29.619Z,56.75
2024-01-06T04:06:51.333Z,56.75
2024-01-06T04:07:13.040Z,56.74
2024-01-06T04:07:34.777Z,56.62
2024-01-06T04:07:57.825Z,56.87
2024-01-06T04:08:19.938Z,56.90
2024-01-06T04:08:41.807Z,56.91
2024-01-06T04:09:04.603Z,56.77
2024-01-06T04:09:26.286Z,56.77
2024-01-06T04:09:47.956Z,56.78
2024-01-06T04:10:10.232Z,56.82
2024-01-06T04:10:31.900Z,56.86
2024-01-06T04:10:58.504Z,56.87
2024-01-06T04:11:21.264Z,56.90
2024-01-06T04:11:43.062Z,56.98
2024-01-06T04:12:04.970Z,56.72
2024-01-06T04:12:26.618Z,56.92
2024-01-06T04:12:49.350Z,56.79
2024-01-06T04:13:11.591Z,56.84
2024-01-06T04:13:33.199Z,56.93
2024-01-06T04:13:54.831Z,56.71
2024-01-06T04:14:16.437Z,56.62
2024-01-06T04:14:39.038Z,56.59
2024-01-06T04:15:00.641Z,56.71
2024-01-06T04:15:22.284Z,56.72
2024-01-06T04:15:43.985Z,56.67
2024-01-06T04:16:06.361Z,56.94
2024-01-06T04:16:29.175Z,57.21
2024-01-06T04:16:50.820Z,57.05
2024-01-06T04:17:12.480Z,57.29
2024-01-06T04:17:34.182Z,57.10
2024-01-06T04:17:56.121Z,57.16
2024-01-06T04:18:19.213Z,57.06
2024-01-06T04:18:41.057Z,57.30
2024-01-06T04:19:02.963Z,57.07
2024-01-06T04:19:24.920Z,57.29
2024-01-06T04:19:46.992Z,57.19
2024-01-06T04:20:13.478Z,57.12
2024-01-06T04:20:36.090Z,57.25
2024-01-06T04:20:57.783Z,57.16
2024-01-06T04:21:19.594Z,57.18
2024-01-06T04:21:41.273Z,57.11
2024-01-06T04:22:02.904Z,57.18
2024-01-06T04:22:25.201Z,57.08
2024-01-06T04:22:49.189Z,57.18
2024-01-06T04:23:12.240Z,57.19
2024-01-06T04:23:33.873Z,57.28
2024-01-06T04:23:57.026Z,57.06
2024-01-06T04:24:18.646Z,57.10
2024-01-06T04:24:41.899Z,57.11
2024-01-06T04:25:04.124Z,56.93
2024-01-06T04:25:25.767Z,57.14
2024-01-06T04:25:47.642Z,57.09
2024-01-06T04:26:09.749Z,56.98
2024-01-06T04:26:31.435Z,56.97
2024-01-06T04:26:54.094Z,57.06
2024-01-06T04:27:15.809Z,57.15
2024-01-06T04:27:37.540Z,57.13
2024-01-06T04:28:00.344Z,57.07
2024-01-06T04:28:21.991Z,57.32
2024-01-06T04:28:43.673Z,56.86
2024-01-06T04:29:06.286Z,57.07
2024-01-06T04:29:28.241Z,57.09
2024-01-06T04:29:53.992Z,57.07
2024-01-06T04:30:15.980Z,56.79
2024-01-06T04:30:37.696Z,56.97
2024-01-06T04:31:00.400Z,56.90
2024-01-06T04:31:22.116Z,56.79
2024-01-06T04:31:43.906Z,56.84
2024-01-06T04:32:06.156Z,56.69
2024-01-06T04:32:28.274Z,56.65
2024-01-06T04:32:51.006Z,56.69
2024-01-06T04:33:12.943Z,56.73
2024-01-06T04:33:34.854Z,56.73
2024-01-06T04:33:56.656Z,56.59
2024-01-06T04:34:18.816Z,56.60
2024-01-06T04:34:40.694Z,56.53
2024-01-06T04:35:02.611Z,56.47
2024-01-06T04:35:27.315Z,56.31
2024-01-06T04:35:48.945Z,56.36
2024-01-06T04:36:11.592Z,56.40
2024-01-06T04:36:33.319Z,56.42
2024-01-06T04:36:55.526Z,56.34
2024-01-06T04:37:17.201Z,56.33
2024-01-06T04:37:38.858Z,56.64
2024-01-06T04:38:01.431Z,56.38
2024-01-06T04:38:24.704Z,56.33
2024-01-06T04:38:46.271Z,56.53
2024-01-06T04:39:07.954Z,56.46
2024-01-06T04:39:30.635Z,56.50
2024-01-06T04:39:52.343Z,56.42
2024-01-06T04:40:14.203Z,56.29
2024-01-06T04:40:36.274Z,56.29
2024-01-06T04:40:57.936Z,56.36
2024-01-06T04:41:22.652Z,56.49
2024-01-06T04:41:44.564Z,56.83
2024-01-06T04:42:06.697Z,57.05
2024-01-06T04:42:28.387Z,57.22
2024-01-06T04:42:50.183Z,57.34
2024-01-06T04:43:11.975Z,57.48
2024-01-06T04:43:34.545Z,57.22
2024-01-06T04:43:56.452Z,57.08
2024-01-06T04:44:21.802Z,57.16
2024-01-06T04:44:43.388Z,56.99
2024-01-06T04:45:05.873Z,56.90
2024-01-06T04:45:28.469Z,56.72
2024-01-06T04:45:51.482Z,56.97
2024-01-06T04:46:13.117Z,57.00
2024-01-06T04:46:34.722Z,57.02
2024-01-06T04:46:56.367Z,57.26
2024-01-06T04:47:18.732Z,57.13
2024-01-06T04:47:40.310Z,57.47
2024-01-06T04:48:03.005Z,57.59
2024-01-06T04:48:24.917Z,57.49
2024-01-06T04:48:46.715Z,57.67
2024-01-06T04:49:08.511Z,57.60
2024-01-06T04:49:30.423Z,57.57
2024-01-06T04:49:52.201Z,57.85
2024-01-06T04:50:15.249Z,57.54
2024-01-06T04:50:40.318Z,57.70
2024-01-06T04:51:04.221Z,57.46
2024-01-06T04:51:25.893Z,57.63
2024-01-06T04:51:48.620Z,57.79
2024-01-06T04:52:10.449Z,57.76
2024-01-06T04:52:33.385Z,57.69
2024-01-06T04:52:55.045Z,57.57
2024-01-06T04:53:16.688Z,57.65
2024-01-06T04:53:39.881Z,57.70
2024-01-06T04:54:01.476Z,57.69
2024-01-06T04:54:23.095Z,57.51
2024-01-06T04:54:45.733Z,57.48
2024-01-06T04:55:07.995Z,57.33
2024-01-06T04:55:29.703Z,57.33
2024-01-06T04:55:51.382Z,57.55
2024-01-06T04:56:13.989Z,57.73
2024-01-06T04:56:36.804Z,57.66
2024-01-06T04:56:59.278Z,57.73
2024-01-06T04:57:21.765Z,57.64
2024-01-06T04:57:43.453Z,57.39
2024-01-06T04:58:05.087Z,57.23
2024-01-06T04:58:27.710Z,57.18
2024-01-06T04:58:49.339Z,57.09
2024-01-06T04:59:11.009Z,57.00
2024-01-06T04:59:32.622Z,57.05
2024-01-06T04:59:54.282Z,57.28
2024-01-06T05:00:16.225Z,57.49
2024-01-06T05:00:38.964Z,57.39
2024-01-06T05:01:00.713Z,57.22
2024-01-06T05:01:22.664Z,56.95
2024-01-06T05:01:44.382Z,57.15
2024-01-06T05:02:06.108Z,57.10
2024-01-06T05:02:27.899Z,57.02
2024-01-06T05:02:50.520Z,57.01
2024-01-06T05:03:12.249Z,56.93
2024-01-06T05:03:33.971Z,57.07
2024-01-06T05:03:55.724Z,56.97
2024-01-06T05:04:17.429Z,57.01
2024-01-06T05:04:39.073Z,56.89
2024-01-06T05:05:01.793Z,56.91
2024-01-06T05:05:23.576Z,57.06
2024-01-06T05:05:45.361Z,56.84
2024-01-06T05:06:07.162Z,56.86
2024-01-06T05:06:28.778Z,56.90
2024-01-06T05:06:53.222Z,56.73
2024-01-06T05:07:15.021Z,56.81
2024-01-06T05:07:36.654Z,56.90
2024-01-06T05:07:59.302Z,56.91
2024-01-06T05:08:21.139Z,56.75
2024-01-06T05:08:46.514Z,56.85
2024-01-06T05:09:08.265Z,56.80
2024-01-06T05:09:29.942Z,56.96
2024-01-06T05:09:51.734Z,57.08
2024-01-06T05:10:13.406Z,56.88
2024-01-06T05:10:35.048Z,56.84
2024-01-06T05:10:57.681Z,56.66
2024-01-06T05:11:19.438Z,56.63
2024-01-06T05:11:41.101Z,56.50